Flight Track Log - Related Links

Times and Time Zones

All times are in EDT time to prevent confusion due to time zone crossing. See the N53NW flight status page for this flight to view local times or setup timezone preferences in your user account.

Time Position Orientation Groundspeed Altitude Reporting Facility
EDT Latitude Longitude Course Direction KTS MPH feet Rate Location/Type
Thu 22:51:25 35.2411 -91.8036 217° Southwest 255 293 4,600  Level Memphis Center
Thu 22:51:58 35.2136 -91.8286 217° Southwest 254 292 6,400 2,194 Climbing Memphis Center
Thu 22:52:58 35.1483 -91.8758 211° Southwest 261 300 8,000 1,650 Climbing Memphis Center
Thu 22:53:58 35.0914 -91.9331 219° Southwest 281 323 9,700 2,000 Climbing Memphis Center
Thu 22:54:58 35.0322 -91.9928 220° Southwest 281 323 12,000 2,300 Climbing Memphis Center
Thu 22:55:58 34.9708 -92.0575 221° Southwest 286 329 14,300 2,300 Climbing Memphis Center
Thu 22:56:58 34.9072 -92.1247 221° Southwest 293 337 16,600 1,950 Climbing Memphis Center
Thu 22:57:58 34.8500 -92.1842 220° Southwest 298 343 18,200 1,850 Climbing Memphis Center
Thu 22:58:58 34.7844 -92.2511 220° Southwest 303 349 20,300 2,050 Climbing Memphis Center
Thu 22:59:58 34.7372 -92.3358 236° Southwest 309 356 22,300 2,000 Climbing Memphis Center
Thu 23:00:58 34.7064 -92.4361 250° West 309 356 24,300 2,000 Climbing Memphis Center
Thu 23:01:58 34.6797 -92.5367 252° West 309 356 26,300 1,750 Climbing Memphis Center
Thu 23:02:58 34.6486 -92.6342 249° West 314 361 27,800 1,450 Climbing Memphis Center
Thu 23:03:58 34.6194 -92.7419 252° West 326 375 29,200 1,100 Climbing Memphis Center
Thu 23:04:58 34.5861 -92.8544 250° West 339 390 30,000 400 Climbing Memphis Center
Thu 23:05:58 34.5503 -92.9744 250° West 363 418 30,000  Level Memphis Center
Thu 23:06:58 34.5119 -93.1094 251° West 394 453 30,000  Level Memphis Center
Thu 23:07:58 34.4733 -93.2417 251° West 415 478 30,000  Level Memphis Center
Thu 23:08:58 34.4350 -93.3664 250° West 415 478 30,000  Level Memphis Center
Thu 23:10:55 34.3586 -93.6350 251° West 405 466 30,000  Level Fort Worth Center
Thu 23:11:55 34.3208 -93.7675 251° West 412 474 30,000  Level Fort Worth Center
Thu 23:12:55 34.2806 -93.8947 249° West 412 474 30,000  Level Fort Worth Center
Thu 23:13:55 34.2403 -94.0269 250° West 412 474 30,000  Level Fort Worth Center
Thu 23:14:55 34.2000 -94.1592 250° West 417 480 30,000  Level Fort Worth Center
Thu 23:15:55 34.1594 -94.2886 249° West 417 480 30,000  Level Fort Worth Center
Thu 23:16:55 34.1189 -94.4206 250° West 417 480 30,000  Level Fort Worth Center
Thu 23:17:55 34.0761 -94.5550 249° West 417 480 30,000  Level Fort Worth Center
Thu 23:18:55 34.0353 -94.6867 250° West 417 480 30,000  Level Fort Worth Center
Thu 23:19:55 33.9942 -94.8183 249° West 417 480 30,000  Level Fort Worth Center
Thu 23:20:55 33.9553 -94.9494 250° West 417 480 30,000 -400 Level Fort Worth Center
Thu 23:21:55 33.9119 -95.0858 249° West 423 487 29,200 -1,200 Descending Fort Worth Center
Thu 23:22:55 33.8744 -95.2169 251° West 423 487 27,600 -1,600 Descending Fort Worth Center
Thu 23:23:55 33.8328 -95.3431 248° West 423 487 26,000 -1,600 Descending Fort Worth Center
Thu 23:24:55 33.7953 -95.4689 250° West 411 473 24,400 -1,600 Descending Fort Worth Center
Thu 23:25:55 33.7617 -95.5897 252° West 398 458 22,800 -1,400 Descending Fort Worth Center
Thu 23:26:55 33.7317 -95.6900 250° West 379 436 21,600 -1,300 Descending Fort Worth Center
Thu 23:27:55 33.6956 -95.8056 249° West 374 430 20,200 -1,500 Descending Fort Worth Center
Thu 23:28:55 33.6575 -95.9311 250° West 374 430 18,600 -1,400 Descending Fort Worth Center
Thu 23:29:55 33.6272 -96.0289 250° West 364 419 17,400 -1,300 Descending Fort Worth Center
Thu 23:30:55 33.5911 -96.1492 250° West 357 411 16,000 -1,300 Descending Fort Worth Center
Thu 23:31:55 33.5606 -96.2494 250° West 357 411 14,800 -1,300 Descending Fort Worth Center
Thu 23:32:55 33.5219 -96.3694 249° West 357 411 13,400 -1,300 Descending Fort Worth Center
Thu 23:33:55 33.4936 -96.4619 250° West 346 398 12,200 -1,200 Descending Fort Worth Center
Thu 23:34:55 33.4275 -96.5447 226° Southwest 319 367 11,000 -581 Descending Fort Worth Center
Thu 23:35:59 33.3500 -96.6167 218° Southwest 311 358 11,000 -387 Level Dallas / Fort Worth TRACON
Thu 23:36:59 33.2833 -96.6667 212° Southwest 298 343 10,200 -947 Descending Dallas / Fort Worth TRACON
Thu 23:37:53 33.2333 -96.7167 220° Southwest 285 328 9,200 -1,167 Descending Dallas / Fort Worth TRACON
Thu 23:38:47 33.1833 -96.7833 228° Southwest 272 313 8,100 -1,211 Descending Dallas / Fort Worth TRACON
Thu 23:39:47 33.1167 -96.8333 212° Southwest 269 310 6,900 -1,200 Descending Dallas / Fort Worth TRACON
Thu 23:40:47 33.0500 -96.8667 203° Southwest 260 299 5,700 -1,200 Descending Dallas / Fort Worth TRACON
Thu 23:41:47 32.9833 -96.9000 203° Southwest 259 298 4,500 -810 Descending Dallas / Fort Worth TRACON
Thu 23:42:53 32.9167 -96.9000 180° South 247 284 4,000 -381 Descending Dallas / Fort Worth TRACON
Thu 23:43:53 32.8333 -96.9000 180° South 242 278 3,700 -500 Descending Dallas / Fort Worth TRACON
Thu 23:44:53 32.7833 -96.9167 196° South 232 267 3,000 -476 Descending Dallas / Fort Worth TRACON
Thu 23:45:59 32.7500 -96.9833 239° Southwest 199 229 2,700 -273 Descending Dallas / Fort Worth TRACON
Thu 23:48:00 32.6815 -97.0728 196° South  Level FlightAware Approximate
Thu 23:55:00 32.6639 -97.0943 196° South  Level Estimated
Thu 23:56:00 32.6639 -97.0943 196° South  Level Estimated
Thu 23:57:00 32.6639 -97.0943 196° South  Level Estimated

Login

Don't have an account? Register now (free) for customized features, flight alerts, and more!